Time;durP1;ratioP1;P1;durP2;ratioP2;P2;SDS_P1;SDS_P2;PMS_P1;PMS_P2;Temp;Humidity;BMP_temperature;BMP_pressure;BME280_temperature;BME280_humidity;BME280_pressure;Samples;Min_cycle;Max_cycle;Signal;HPM_P1;HPM_P2
2023/04/17 00:02:14;;;;;;;4.90;2.72;;;;;;;11.41;84.99;101802.03;5008107;28;20077;-52
2023/04/17 00:04:39;;;;;;;3.75;2.08;;;;;;;11.37;85.08;101801.13;4995458;28;20121;-52
2023/04/17 00:07:06;;;;;;;3.75;2.08;;;;;;;11.37;85.62;101801.91;5007104;28;20053;-53
2023/04/17 00:09:31;;;;;;;4.88;1.88;;;;;;;11.38;85.72;101802.72;5007122;28;20052;-54
2023/04/17 00:11:57;;;;;;;2.72;1.88;;;;;;;11.41;85.78;101793.94;4995674;28;20034;-57
2023/04/17 00:14:23;;;;;;;2.30;1.38;;;;;;;11.34;85.60;101799.09;5005461;28;20376;-52
2023/04/17 00:16:49;;;;;;;11.10;2.20;;;;;;;11.36;85.99;101797.63;5005789;28;20073;-52
2023/04/17 00:19:14;;;;;;;7.65;2.60;;;;;;;11.39;85.65;101798.88;5007491;28;20061;-52
2023/04/17 00:21:40;;;;;;;3.78;1.42;;;;;;;11.40;86.02;101798.53;5003282;28;20117;-49
2023/04/17 00:24:06;;;;;;;1.98;1.83;;;;;;;11.35;85.61;101790.66;5004842;28;20033;-55
2023/04/17 00:26:33;;;;;;;4.40;2.20;;;;;;;11.32;85.97;101795.94;4989209;28;20419;-53
2023/04/17 00:29:10;;;;;;;5.18;2.25;;;;;;;11.32;85.61;101795.94;4977002;28;20034;-54
2023/04/17 00:31:45;;;;;;;4.43;1.95;;;;;;;11.30;85.61;101793.59;4986639;28;20081;-55
2023/04/17 00:34:11;;;;;;;8.00;2.45;;;;;;;11.28;85.73;101792.34;5008343;28;20129;-54
2023/04/17 00:36:36;;;;;;;3.33;1.95;;;;;;;11.27;85.72;101791.53;4999524;28;20052;-53
2023/04/17 00:39:02;;;;;;;3.53;2.03;;;;;;;11.28;86.21;101795.03;4999621;28;20041;-57
2023/04/17 00:41:27;;;;;;;7.72;1.67;;;;;;;11.26;86.22;101791.88;4984843;28;20388;-55
2023/04/17 00:43:53;;;;;;;6.85;2.20;;;;;;;11.20;86.11;101788.59;4999274;28;20730;-52
2023/04/17 00:46:18;;;;;;;2.70;1.52;;;;;;;11.20;86.18;101794.00;5000649;28;20042;-51
2023/04/17 00:48:45;;;;;;;4.07;2.58;;;;;;;11.17;86.42;101793.88;5004823;28;20072;-55
2023/04/17 00:51:11;;;;;;;5.53;2.13;;;;;;;11.13;86.07;101792.94;5004464;28;20057;-50
2023/04/17 00:53:37;;;;;;;4.45;2.20;;;;;;;11.10;86.67;101794.38;4982836;28;20556;-54
2023/04/17 00:56:04;;;;;;;3.80;2.28;;;;;;;11.09;86.34;101794.72;4988371;28;20088;-53
2023/04/17 00:58:36;;;;;;;5.70;2.38;;;;;;;11.09;86.25;101795.50;4971405;28;20401;-55
2023/04/17 01:01:02;;;;;;;3.63;2.05;;;;;;;11.07;86.93;101791.56;4999363;28;20049;-53
2023/04/17 01:03:30;;;;;;;4.35;2.17;;;;;;;11.00;86.67;101793.97;4985106;28;20034;-50
2023/04/17 01:05:56;;;;;;;3.08;1.75;;;;;;;11.01;87.11;101784.78;4981121;28;20448;-50
2023/04/17 01:08:22;;;;;;;9.05;3.38;;;;;;;10.99;86.52;101797.81;4986847;28;20042;-54
2023/04/17 01:10:47;;;;;;;5.00;2.25;;;;;;;10.96;87.22;101782.28;4977906;28;20065;-51
2023/04/17 01:13:13;;;;;;;5.10;2.15;;;;;;;10.95;87.03;101791.50;4989267;28;20049;-51
2023/04/17 01:15:41;;;;;;;2.75;2.03;;;;;;;10.94;87.45;101787.22;4987145;28;20064;-50
2023/04/17 01:18:07;;;;;;;4.45;2.00;;;;;;;10.95;87.01;101791.50;4992777;28;20030;-53
2023/04/17 01:20:33;;;;;;;4.47;2.33;;;;;;;10.93;87.62;101788.34;4975811;28;20558;-54
2023/04/17 01:23:00;;;;;;;4.40;2.45;;;;;;;10.96;87.07;101801.13;4998540;28;20076;-54
2023/04/17 01:25:27;;;;;;;6.32;2.13;;;;;;;10.96;86.79;101799.25;4987405;28;20034;-54
2023/04/17 01:27:53;;;;;;;4.82;2.08;;;;;;;10.87;87.90;101795.84;4988027;28;20537;-51
2023/04/17 01:30:19;;;;;;;4.85;1.85;;;;;;;10.86;87.73;101800.44;4985238;28;20120;-56
2023/04/17 01:32:54;;;;;;;6.13;1.88;;;;;;;10.89;87.83;101797.09;4986932;28;20064;-50
2023/04/17 01:35:20;;;;;;;4.45;2.22;;;;;;;10.86;87.22;101794.25;5006845;28;20061;-53
2023/04/17 01:37:45;;;;;;;2.83;1.60;;;;;;;10.80;87.55;101793.66;4998256;28;20500;-52
2023/04/17 01:40:11;;;;;;;5.80;2.88;;;;;;;10.80;87.94;101790.19;4992171;28;20030;-50
2023/04/17 01:42:36;;;;;;;3.45;2.10;;;;;;;10.75;87.91;101801.13;4985744;28;20022;-49
2023/04/17 01:45:03;;;;;;;5.00;2.08;;;;;;;10.69;87.95;101795.16;5001341;28;20547;-51
2023/04/17 01:47:28;;;;;;;6.80;2.88;;;;;;;10.67;88.43;101792.00;5002437;28;20040;-54
2023/04/17 01:49:54;;;;;;;7.15;2.92;;;;;;;10.67;88.20;101793.91;5002828;28;20042;-54
2023/04/17 01:52:19;;;;;;;3.28;2.03;;;;;;;10.66;88.48;101795.03;4979058;28;20105;-54
2023/04/17 01:54:45;;;;;;;2.90;2.00;;;;;;;10.64;88.80;101795.38;4984577;28;20029;-53
2023/04/17 01:57:11;;;;;;;4.10;2.35;;;;;;;10.62;88.61;101800.28;4996339;28;20034;-52
2023/04/17 01:59:36;;;;;;;5.68;2.72;;;;;;;10.59;88.53;101811.69;4989050;28;20022;-57
2023/04/17 02:02:01;;;;;;;5.60;2.40;;;;;;;10.59;88.96;101811.69;5005613;28;20066;-53
2023/04/17 02:04:27;;;;;;;5.82;2.65;;;;;;;10.52;88.56;101810.63;4987333;28;20049;-53
2023/04/17 02:06:53;;;;;;;4.85;2.50;;;;;;;10.49;89.06;101809.38;5004204;28;20924;-53
2023/04/17 02:09:18;;;;;;;3.47;2.25;;;;;;;10.53;89.07;101812.22;4981724;28;20037;-52
2023/04/17 02:11:44;;;;;;;4.07;2.25;;;;;;;10.57;88.65;101808.53;5007038;28;20116;-51
2023/04/17 02:14:10;;;;;;;6.97;3.38;;;;;;;10.51;88.51;101809.84;4987314;28;20033;-53
2023/04/17 02:16:36;;;;;;;2.88;2.13;;;;;;;10.51;89.00;101812.53;5003147;28;20049;-52
2023/04/17 02:19:02;;;;;;;5.15;2.35;;;;;;;10.45;88.78;101816.50;5001652;28;20443;-50
2023/04/17 02:21:29;;;;;;;5.50;2.97;;;;;;;10.40;89.35;101824.78;4990586;28;20392;-53
2023/04/17 02:23:55;;;;;;;4.88;2.15;;;;;;;10.38;89.19;101824.31;4988770;28;20025;-51
2023/04/17 02:26:22;;;;;;;9.30;3.17;;;;;;;10.38;89.38;101818.94;5005335;28;20107;-53
2023/04/17 02:28:47;;;;;;;5.75;2.53;;;;;;;10.37;89.90;101825.44;5010003;28;20065;-53
2023/04/17 02:31:13;;;;;;;4.28;2.22;;;;;;;10.37;89.68;101814.69;4988086;28;20061;-53
2023/04/17 02:33:39;;;;;;;5.03;2.90;;;;;;;10.39;89.78;101820.53;4986096;28;20026;-52
2023/04/17 02:36:06;;;;;;;2.42;2.08;;;;;;;10.39;89.48;101817.84;4985206;28;20061;-54
2023/04/17 02:38:41;;;;;;;4.18;1.90;;;;;;;10.41;89.32;101812.13;4981404;28;20056;-51
2023/04/17 02:41:06;;;;;;;3.72;1.80;;;;;;;10.42;89.67;101819.88;4990814;28;20497;-50
2023/04/17 02:43:32;;;;;;;3.58;3.05;;;;;;;10.41;89.66;101815.63;4995308;28;20030;-51
2023/04/17 02:45:58;;;;;;;4.32;2.83;;;;;;;10.44;89.59;101814.94;4999505;28;20018;-53
2023/04/17 02:48:25;;;;;;;4.82;2.67;;;;;;;10.44;89.25;101814.94;5006865;28;20038;-50
2023/04/17 02:50:51;;;;;;;3.88;2.15;;;;;;;10.49;88.96;101819.38;4988805;28;20033;-50
2023/04/17 02:53:18;;;;;;;7.47;2.55;;;;;;;10.49;89.02;101822.84;4996910;28;20651;-52
2023/04/17 02:55:44;;;;;;;6.25;3.40;;;;;;;10.45;89.38;101815.75;4990086;28;20034;-51
2023/04/17 02:58:10;;;;;;;4.60;2.60;;;;;;;10.41;89.15;101817.50;4987759;28;20029;-55
2023/04/17 03:00:36;;;;;;;7.00;2.95;;;;;;;10.33;89.93;101821.81;4999884;28;20106;-54
2023/04/17 03:03:02;;;;;;;5.30;3.00;;;;;;;10.40;89.42;101824.78;5011254;28;20038;-51
2023/04/17 03:05:29;;;;;;;6.00;3.00;;;;;;;10.40;89.64;101824.78;4985504;28;20523;-54
2023/04/17 03:07:58;;;;;;;8.48;3.30;;;;;;;10.43;89.65;101817.97;4987975;28;20026;-54
2023/04/17 03:10:25;;;;;;;5.97;2.40;;;;;;;10.38;89.73;101827.00;4984223;28;20126;-51
2023/04/17 03:12:51;;;;;;;5.45;2.67;;;;;;;10.40;89.93;101819.41;4985102;28;20081;-52
2023/04/17 03:15:17;;;;;;;4.80;2.97;;;;;;;10.34;89.55;101825.28;4983150;28;20497;-55
2023/04/17 03:17:43;;;;;;;6.07;2.70;;;;;;;10.38;89.92;101821.63;4988551;28;20077;-52
2023/04/17 03:20:08;;;;;;;5.32;2.65;;;;;;;10.37;89.89;101819.28;5005560;28;20489;-53
2023/04/17 03:22:35;;;;;;;4.55;2.50;;;;;;;10.39;89.91;101823.22;4982475;28;20120;-50
2023/04/17 03:25:02;;;;;;;5.45;2.58;;;;;;;10.36;89.78;101821.16;4990131;28;20508;-52
2023/04/17 03:27:34;;;;;;;8.98;3.67;;;;;;;10.37;90.13;101819.28;4984163;28;20476;-51
2023/04/17 03:30:00;;;;;;;8.05;2.38;;;;;;;10.36;89.84;101823.84;4992730;28;20037;-54
2023/04/17 03:32:26;;;;;;;6.95;2.45;;;;;;;10.35;89.44;101816.91;4975243;28;20087;-56
2023/04/17 03:34:51;;;;;;;4.53;2.70;;;;;;;10.34;90.17;101822.59;4984327;28;20490;-50
2023/04/17 03:37:20;;;;;;;5.05;2.47;;;;;;;10.33;89.63;101824.50;5006325;28;20030;-52
2023/04/17 03:39:45;;;;;;;2.97;2.08;;;;;;;10.31;90.05;101821.34;4984514;28;20091;-53
2023/04/17 03:42:13;;;;;;;3.53;2.25;;;;;;;10.21;89.91;101821.72;5007703;28;20030;-51
2023/04/17 03:44:39;;;;;;;6.32;2.38;;;;;;;10.21;89.99;101816.31;4983825;28;20080;-53
2023/04/17 03:47:05;;;;;;;7.55;2.33;;;;;;;10.21;90.15;101816.31;4984139;28;20026;-57
2023/04/17 03:49:31;;;;;;;5.20;2.60;;;;;;;10.24;90.58;101820.28;5002653;28;20026;-54
2023/04/17 03:51:56;;;;;;;7.78;3.30;;;;;;;10.20;90.08;101812.03;4976428;28;20025;-55
2023/04/17 03:54:22;;;;;;;6.05;2.88;;;;;;;10.24;90.33;101821.06;4989117;28;20034;-55
2023/04/17 03:56:50;;;;;;;9.23;3.40;;;;;;;10.22;90.20;101828.66;4987733;28;20038;-55
2023/04/17 03:59:16;;;;;;;5.18;3.00;;;;;;;10.24;89.85;101823.75;4983636;28;20030;-57
2023/04/17 04:01:45;;;;;;;6.93;2.92;;;;;;;10.25;89.99;101828.03;4987285;28;20554;-51
2023/04/17 04:04:17;;;;;;;5.80;3.13;;;;;;;10.20;90.13;101836.25;4987403;28;20041;-51
2023/04/17 04:06:48;;;;;;;3.30;1.90;;;;;;;10.20;90.56;101847.03;4990279;28;20042;-56
2023/04/17 04:09:15;;;;;;;5.47;3.13;;;;;;;10.18;90.56;101846.56;4994610;28;20041;-53
2023/04/17 04:11:41;;;;;;;5.03;2.80;;;;;;;10.18;90.69;101848.50;4977835;28;20382;-54
2023/04/17 04:14:07;;;;;;;7.60;2.55;;;;;;;10.17;90.57;101844.19;4990553;28;20037;-51
2023/04/17 04:16:33;;;;;;;3.67;2.33;;;;;;;10.17;90.18;101852.28;4992142;28;20026;-50
2023/04/17 04:19:10;;;;;;;6.93;3.05;;;;;;;10.15;90.68;101851.81;4976251;28;20023;-53
2023/04/17 04:21:36;;;;;;;7.72;2.70;;;;;;;10.15;90.53;101852.59;4997704;28;20032;-54
2023/04/17 04:24:04;;;;;;;6.95;2.70;;;;;;;10.13;90.88;101862.09;4986380;28;20034;-53
2023/04/17 04:26:32;;;;;;;4.22;2.60;;;;;;;10.13;90.94;101856.72;4987633;28;20060;-53
2023/04/17 04:28:59;;;;;;;4.43;2.80;;;;;;;10.10;90.88;101866.25;4989087;28;20030;-50
2023/04/17 04:31:34;;;;;;;5.78;2.63;;;;;;;10.14;90.49;101867.19;4978017;28;20032;-50
2023/04/17 04:34:01;;;;;;;7.85;3.70;;;;;;;10.13;91.12;101865.59;4994271;28;20048;-52
2023/04/17 04:36:28;;;;;;;3.80;2.30;;;;;;;10.14;91.20;101869.09;5000686;28;20028;-50
2023/04/17 04:39:16;;;;;;;3.38;2.92;;;;;;;10.11;91.20;101867.00;4959991;28;20022;-55
2023/04/17 04:41:44;;;;;;;8.97;2.77;;;;;;;10.12;90.90;101869.41;5009190;28;20445;-49
2023/04/17 04:44:10;;;;;;;6.15;2.58;;;;;;;10.15;91.27;101871.44;4982593;28;20030;-50
2023/04/17 04:46:38;;;;;;;6.22;3.05;;;;;;;10.18;90.82;101872.72;4989268;28;20025;-51
2023/04/17 04:49:03;;;;;;;8.02;3.60;;;;;;;10.20;91.13;101873.19;4987014;28;20180;-49
2023/04/17 04:51:30;;;;;;;5.70;3.30;;;;;;;10.23;90.68;101873.31;4986788;28;20397;-52
2023/04/17 04:53:56;;;;;;;6.55;3.55;;;;;;;10.23;90.51;101870.63;4985105;28;20088;-53
2023/04/17 04:56:22;;;;;;;9.20;4.38;;;;;;;10.24;90.67;101874.88;4982479;28;20037;-55
2023/04/17 04:58:52;;;;;;;8.95;3.22;;;;;;;10.25;90.51;101881.06;4975707;28;20713;-55
2023/04/17 05:01:20;;;;;;;6.57;2.53;;;;;;;10.26;91.02;101883.44;4986624;28;20041;-51
2023/04/17 05:03:45;;;;;;;8.18;3.05;;;;;;;10.26;90.73;101883.44;4989240;28;20040;-51
2023/04/17 05:06:16;;;;;;;10.18;3.25;;;;;;;10.30;90.88;101883.59;4997304;28;20096;-51
2023/04/17 05:08:48;;;;;;;5.00;2.45;;;;;;;10.31;91.39;101885.97;4984148;28;20467;-53
2023/04/17 05:11:14;;;;;;;9.55;3.50;;;;;;;10.29;91.06;101880.13;4983305;28;20065;-50
2023/04/17 05:13:40;;;;;;;7.65;3.47;;;;;;;10.33;91.14;101881.06;4998266;28;20053;-48
2023/04/17 05:16:12;;;;;;;6.78;4.20;;;;;;;10.35;91.69;101880.72;4999962;28;20049;-52
2023/04/17 05:18:38;;;;;;;5.93;2.88;;;;;;;10.36;91.27;101885.78;4989233;28;20040;-50
2023/04/17 05:21:04;;;;;;;7.22;3.45;;;;;;;10.36;91.38;101893.84;4988048;28;20048;-52
2023/04/17 05:23:30;;;;;;;6.93;3.30;;;;;;;10.40;91.43;101894.00;4982444;28;20017;-52
2023/04/17 05:25:56;;;;;;;9.27;3.58;;;;;;;10.42;92.00;101891.78;4980221;28;20061;-53
2023/04/17 05:28:22;;;;;;;6.07;3.28;;;;;;;10.44;91.65;101898.44;5001029;28;20615;-52
2023/04/17 05:30:52;;;;;;;8.23;3.05;;;;;;;10.48;91.54;101902.06;4977451;28;20129;-53
2023/04/17 05:33:25;;;;;;;7.65;3.38;;;;;;;10.51;91.70;101906.78;4990669;28;20559;-53
2023/04/17 05:35:54;;;;;;;4.32;2.55;;;;;;;10.56;91.75;101914.72;4980867;28;20803;-54
2023/04/17 05:38:20;;;;;;;6.65;3.78;;;;;;;10.59;91.65;101911.34;4991958;28;20117;-56
2023/04/17 05:40:45;;;;;;;9.50;3.78;;;;;;;10.61;91.98;101919.91;4971114;28;20061;-51
2023/04/17 05:43:11;;;;;;;5.43;2.88;;;;;;;10.61;92.20;101922.59;5003305;28;20026;-51
2023/04/17 05:45:40;;;;;;;4.55;3.00;;;;;;;10.60;92.85;101921.03;4977635;28;20081;-52
2023/04/17 05:48:07;;;;;;;6.28;3.63;;;;;;;10.66;92.27;101921.63;4989830;28;20112;-57
2023/04/17 05:50:33;;;;;;;6.38;3.45;;;;;;;10.73;92.72;101911.94;4992123;28;20500;-52
2023/04/17 05:53:00;;;;;;;3.53;2.58;;;;;;;10.77;92.37;101918.25;5008270;28;20041;-50
2023/04/17 05:55:29;;;;;;;7.45;3.13;;;;;;;10.88;92.47;101916.75;4987275;28;20033;-52
2023/04/17 05:57:58;;;;;;;6.57;2.45;;;;;;;10.89;92.71;101914.88;5003811;28;20631;-51
2023/04/17 06:00:24;;;;;;;8.10;4.18;;;;;;;10.96;92.69;101917.84;4992016;28;20036;-54
2023/04/17 06:02:55;;;;;;;;;;;;;;;11.00;92.74;101920.66;4993132;28;20113;-53
2023/04/17 06:05:30;;;;;;;6.90;3.45;;;;;;;11.04;92.77;101926.97;4993622;28;19913;-55
2023/04/17 06:07:55;;;;;;;8.32;3.08;;;;;;;11.05;92.83;101926.69;4992597;28;20045;-54
2023/04/17 06:10:21;;;;;;;7.05;3.72;;;;;;;11.12;93.03;101923.44;5008811;28;20388;-52
2023/04/17 06:12:47;;;;;;;4.40;3.22;;;;;;;11.21;92.88;101929.56;4980666;28;20123;-56
2023/04/17 06:15:12;;;;;;;15.80;3.30;;;;;;;11.29;92.67;101926.81;4983730;28;20030;-52
2023/04/17 06:17:38;;;;;;;4.82;3.08;;;;;;;11.43;92.17;101934.66;4990364;28;21741;-54
2023/04/17 06:20:08;;;;;;;7.07;3.13;;;;;;;11.47;92.35;101932.91;4978951;28;20037;-52
2023/04/17 06:22:35;;;;;;;6.88;3.17;;;;;;;11.49;92.15;101928.75;4998358;28;20034;-54
2023/04/17 06:25:01;;;;;;;8.13;4.13;;;;;;;11.52;92.98;101933.47;5009279;28;20124;-56
2023/04/17 06:27:26;;;;;;;12.27;4.75;;;;;;;11.63;92.84;101931.19;4993430;28;20393;-51
2023/04/17 06:29:53;;;;;;;7.53;2.92;;;;;;;11.72;92.90;101931.94;4987976;28;20125;-56
2023/04/17 06:32:19;;;;;;;6.88;3.38;;;;;;;11.86;92.87;101935.16;4989678;28;20655;-55
2023/04/17 06:34:47;;;;;;;10.70;4.07;;;;;;;12.09;91.98;101939.06;4973025;28;20441;-54
2023/04/17 06:37:16;;;;;;;11.52;4.65;;;;;;;12.32;90.74;101934.84;4985545;28;20157;-55
2023/04/17 06:39:42;;;;;;;8.13;3.58;;;;;;;12.40;91.02;101944.75;4995945;28;20026;-49
2023/04/17 06:42:08;;;;;;;8.10;3.22;;;;;;;12.41;90.36;101945.53;5008836;28;20036;-52
2023/04/17 06:44:37;;;;;;;9.02;3.22;;;;;;;12.54;90.12;101947.16;4987009;28;20118;-56
2023/04/17 06:47:09;;;;;;;4.30;2.95;;;;;;;12.61;87.96;101948.19;5006585;28;20048;-55
2023/04/17 06:49:36;;;;;;;3.85;2.83;;;;;;;12.68;87.65;101956.50;5007307;28;20022;-51
2023/04/17 06:52:02;;;;;;;7.15;3.17;;;;;;;12.72;86.79;101950.44;5003111;28;20133;-53
2023/04/17 06:54:27;;;;;;;5.90;2.47;;;;;;;12.70;86.17;101956.16;5005166;28;20503;-49
2023/04/17 06:56:53;;;;;;;10.25;3.42;;;;;;;12.75;85.81;101949.75;4969327;28;20052;-54
2023/04/17 06:59:18;;;;;;;6.93;2.83;;;;;;;12.74;86.01;101957.06;4997293;28;20034;-50
2023/04/17 07:01:44;;;;;;;6.50;2.83;;;;;;;13.00;85.76;101959.44;4995316;28;20119;-50
2023/04/17 07:04:10;;;;;;;10.15;2.95;;;;;;;13.05;85.20;101959.25;4999934;28;20656;-53
2023/04/17 07:06:37;;;;;;;5.50;2.50;;;;;;;13.14;84.40;101962.63;4995078;28;20034;-52
2023/04/17 07:09:02;;;;;;;7.22;3.33;;;;;;;13.33;83.64;101969.03;4994762;28;20269;-54
2023/04/17 07:11:28;;;;;;;6.63;2.10;;;;;;;13.46;81.28;101970.59;4994493;28;20030;-50
2023/04/17 07:13:54;;;;;;;5.10;2.00;;;;;;;13.42;80.47;101966.19;4996684;28;20069;-53
2023/04/17 07:16:22;;;;;;;8.57;3.03;;;;;;;13.44;80.14;101966.66;4978392;28;20471;-50
2023/04/17 07:18:51;;;;;;;4.93;2.55;;;;;;;13.36;80.29;101967.56;5000797;28;20034;-49
2023/04/17 07:21:17;;;;;;;4.20;2.63;;;;;;;13.46;79.82;101976.00;5007582;28;20496;-49
2023/04/17 07:23:43;;;;;;;3.28;1.88;;;;;;;13.66;79.24;101978.91;5004767;28;20033;-54
2023/04/17 07:26:10;;;;;;;2.65;1.70;;;;;;;13.85;78.60;101984.47;4994785;28;20041;-53
2023/04/17 07:28:37;;;;;;;3.55;1.88;;;;;;;14.01;77.79;101983.41;4998499;28;20080;-54
2023/04/17 07:31:06;;;;;;;5.00;1.95;;;;;;;14.19;77.26;101981.16;4977840;28;20022;-52
2023/04/17 07:33:32;;;;;;;6.07;2.15;;;;;;;14.29;76.68;101991.53;5007603;28;20042;-52
2023/04/17 07:35:57;;;;;;;6.53;1.90;;;;;;;14.34;75.82;101981.22;4993440;28;20052;-54
2023/04/17 07:38:25;;;;;;;8.75;2.60;;;;;;;14.51;75.57;101990.19;5001001;28;20041;-55
2023/04/17 07:40:51;;;;;;;2.42;1.70;;;;;;;14.69;74.46;101988.72;4992503;28;20113;-50
2023/04/17 07:43:17;;;;;;;4.53;1.75;;;;;;;14.85;73.92;101987.56;5003842;28;20116;-56
2023/04/17 07:45:42;;;;;;;4.00;1.75;;;;;;;14.98;73.75;101993.72;5004216;28;20112;-51
2023/04/17 07:48:08;;;;;;;9.20;1.80;;;;;;;15.16;73.36;101992.19;5009221;28;20038;-50
2023/04/17 07:50:33;;;;;;;3.95;2.25;;;;;;;15.21;72.99;101994.66;5001668;28;20041;-53
2023/04/17 07:52:59;;;;;;;3.17;1.77;;;;;;;15.50;73.04;101994.19;5008706;28;20049;-52
2023/04/17 07:55:25;;;;;;;5.15;2.20;;;;;;;15.64;72.25;101996.41;4998674;28;20022;-51
2023/04/17 07:57:51;;;;;;;5.43;2.00;;;;;;;15.81;72.02;101988.66;5004536;28;20034;-53
2023/04/17 08:00:18;;;;;;;3.47;1.55;;;;;;;16.02;71.05;102001.88;5002868;28;20030;-53
2023/04/17 08:02:43;;;;;;;4.13;1.73;;;;;;;16.06;68.92;102000.81;5005259;28;20038;-51
2023/04/17 08:05:09;;;;;;;6.85;2.22;;;;;;;16.16;68.49;101994.75;5002650;28;20129;-54
2023/04/17 08:07:35;;;;;;;5.90;2.00;;;;;;;16.30;69.29;102002.41;4992132;28;21458;-54
2023/04/17 08:10:02;;;;;;;4.47;1.83;;;;;;;16.48;67.21;101998.13;4979210;28;20042;-53
2023/04/17 08:12:27;;;;;;;3.05;1.52;;;;;;;16.65;66.85;102002.28;4994372;28;20045;-54
2023/04/17 08:14:53;;;;;;;5.28;2.33;;;;;;;16.73;66.81;102006.72;4993202;28;20033;-52
2023/04/17 08:17:21;;;;;;;2.90;1.55;;;;;;;16.88;66.43;101998.41;4977518;28;20116;-51
2023/04/17 08:19:52;;;;;;;3.70;2.05;;;;;;;17.04;66.34;102004.53;4983339;28;20033;-52
2023/04/17 08:22:20;;;;;;;2.70;1.30;;;;;;;17.12;64.20;101997.25;4992011;28;20204;-53
2023/04/17 08:24:47;;;;;;;3.28;1.73;;;;;;;17.28;64.13;102003.34;5004633;28;20121;-54
2023/04/17 08:27:14;;;;;;;4.38;1.88;;;;;;;17.41;64.27;101999.25;5000290;28;20042;-54
2023/04/17 08:29:42;;;;;;;4.72;1.98;;;;;;;17.53;63.20;102003.72;4973820;28;20038;-54
2023/04/17 08:32:08;;;;;;;3.50;2.20;;;;;;;17.68;61.25;102003.53;5001647;28;20516;-52
2023/04/17 08:34:34;;;;;;;4.75;2.60;;;;;;;17.69;62.43;101999.66;5004516;28;20096;-53
2023/04/17 08:37:00;;;;;;;4.13;2.13;;;;;;;17.79;62.98;102009.13;4997382;28;20512;-51
2023/04/17 08:39:26;;;;;;;6.03;2.58;;;;;;;17.96;60.40;102011.28;4997938;28;20064;-55
2023/04/17 08:41:59;;;;;;;2.63;1.55;;;;;;;18.14;61.44;102014.22;4995936;28;20137;-48
2023/04/17 08:44:25;;;;;;;3.08;1.98;;;;;;;18.31;59.31;102014.41;4996067;28;20563;-50
2023/04/17 08:46:51;;;;;;;3.83;1.50;;;;;;;18.33;58.57;102005.88;4992166;28;20037;-50
2023/04/17 08:49:17;;;;;;;4.95;2.10;;;;;;;18.57;56.93;102010.81;4992486;28;20499;-49
2023/04/17 08:51:43;;;;;;;2.95;1.58;;;;;;;18.76;57.66;102000.47;4989448;28;20034;-51
2023/04/17 08:54:08;;;;;;;2.70;1.70;;;;;;;18.76;56.07;102005.13;4997745;28;20514;-49
2023/04/17 08:56:34;;;;;;;2.95;1.75;;;;;;;18.80;57.38;102001.28;4998440;28;20701;-50
2023/04/17 08:59:00;;;;;;;6.03;1.83;;;;;;;18.99;56.43;102018.59;4992597;28;20711;-49
2023/04/17 09:01:27;;;;;;;2.65;1.63;;;;;;;19.19;54.95;102012.50;4994077;28;20034;-49
2023/04/17 09:03:52;;;;;;;4.72;2.38;;;;;;;19.25;54.00;102011.00;4988041;28;20029;-49
2023/04/17 09:06:18;;;;;;;3.13;1.52;;;;;;;19.23;53.51;102013.31;4992391;28;20037;-50
2023/04/17 09:08:58;;;;;;;5.43;1.75;;;;;;;19.12;53.26;102008.94;4990874;28;20061;-51
2023/04/17 09:11:24;;;;;;;7.40;1.80;;;;;;;19.28;52.86;102018.41;4983635;28;20048;-54
2023/04/17 09:13:50;;;;;;;1.65;1.38;;;;;;;19.20;52.63;102013.31;4993952;28;20598;-52
2023/04/17 09:16:16;;;;;;;2.00;1.20;;;;;;;19.26;52.18;102012.53;4989215;28;20030;-52
2023/04/17 09:18:42;;;;;;;2.45;1.58;;;;;;;19.30;52.11;102024.28;4987691;28;20037;-49
2023/04/17 09:21:08;;;;;;;2.28;1.50;;;;;;;19.43;51.94;102027.53;4987277;28;20031;-53
2023/04/17 09:23:47;;;;;;;2.28;1.20;;;;;;;19.47;51.05;102023.63;4994088;28;20041;-49
2023/04/17 09:26:18;;;;;;;3.67;1.80;;;;;;;19.77;51.27;102015.22;4992278;28;20061;-59
2023/04/17 09:29:10;;;;;;;3.72;1.73;;;;;;;19.89;51.88;102012.16;4990915;28;20034;-52
2023/04/17 09:31:37;;;;;;;2.78;1.75;;;;;;;20.23;51.12;102016.19;5005159;28;20085;-55
2023/04/17 09:34:09;;;;;;;4.38;2.25;;;;;;;20.10;51.24;102019.66;5007949;28;20049;-54
2023/04/17 09:36:37;;;;;;;4.32;2.63;;;;;;;20.22;51.56;102022.06;4981756;28;20022;-54
2023/04/17 09:39:24;;;;;;;4.60;1.83;;;;;;;20.10;51.25;102023.19;5000001;28;20033;-51
2023/04/17 09:41:55;;;;;;;3.60;1.88;;;;;;;20.20;50.51;102029.88;5002524;28;20111;-51
2023/04/17 09:44:25;;;;;;;5.78;2.22;;;;;;;20.21;51.07;102024.00;4992560;28;20109;-53
2023/04/17 09:46:52;;;;;;;3.65;1.75;;;;;;;20.24;51.11;102027.94;4998141;28;20081;-50
2023/04/17 09:49:36;;;;;;;6.00;2.13;;;;;;;20.34;51.00;102033.44;4995984;28;20117;-50
2023/04/17 09:52:02;;;;;;;3.65;1.70;;;;;;;20.27;50.86;102018.94;4994407;28;20034;-52
2023/04/17 09:54:36;;;;;;;5.10;2.13;;;;;;;20.42;50.44;102028.78;4994728;28;20060;-46
2023/04/17 09:57:03;;;;;;;4.25;2.05;;;;;;;20.52;50.72;102022.53;5007803;22;20039;-71
2023/04/17 09:59:49;;;;;;;4.65;2.08;;;;;;;20.61;49.94;102020.97;4962957;28;20031;-71
2023/04/17 10:02:17;;;;;;;4.28;2.13;;;;;;;20.88;48.66;102026.88;4922225;29;20050;-71
2023/04/17 10:04:44;;;;;;;5.00;2.00;;;;;;;20.88;49.33;102029.63;4915169;29;20044;-71
2023/04/17 10:07:11;;;;;;;3.63;1.48;;;;;;;20.97;49.65;102024.53;4908457;29;20079;-71
2023/04/17 10:09:40;;;;;;;3.00;1.52;;;;;;;21.01;47.54;102027.28;4900186;29;20024;-71
2023/04/17 10:12:10;;;;;;;5.15;1.80;;;;;;;20.99;47.74;102032.34;4915930;29;20079;-72
2023/04/17 10:14:38;;;;;;;4.07;2.22;;;;;;;21.03;47.78;102028.47;4923755;29;20159;-71
2023/04/17 10:17:23;;;;;;;3.88;1.48;;;;;;;20.76;47.19;102032.75;4926653;29;20496;-71
2023/04/17 10:19:49;;;;;;;2.63;1.30;;;;;;;20.85;48.49;102026.88;4927422;29;20050;-70
2023/04/17 10:22:14;;;;;;;2.47;1.50;;;;;;;20.95;48.24;102037.03;4925312;29;20122;-71
2023/04/17 10:25:12;;;;;;;4.15;1.65;;;;;;;21.10;47.98;102031.19;4920510;29;20812;-71
2023/04/17 10:27:40;;;;;;;4.25;1.67;;;;;;;21.11;47.67;102026.50;4925624;29;20036;-71
2023/04/17 10:30:11;;;;;;;4.03;1.55;;;;;;;21.13;48.21;102019.47;4923007;29;20046;-71
2023/04/17 10:32:38;;;;;;;3.78;1.67;;;;;;;21.20;47.10;102032.38;4926769;29;20047;-72
2023/04/17 10:35:12;;;;;;;2.83;1.58;;;;;;;21.03;46.72;102038.63;4921498;29;20257;-70
2023/04/17 10:37:47;;;;;;;2.20;1.30;;;;;;;20.81;46.21;102039.78;4913871;29;20126;-70
2023/04/17 10:40:20;;;;;;;2.58;1.60;;;;;;;20.60;47.38;102035.06;4974281;28;20070;-70
2023/04/17 10:43:22;;;;;;;3.25;1.75;;;;;;;20.67;47.66;102029.59;4972544;28;20073;-70
2023/04/17 10:46:00;;;;;;;3.95;1.50;;;;;;;20.72;46.81;102026.47;4980635;28;20054;-70
2023/04/17 10:48:29;;;;;;;3.67;2.20;;;;;;;20.75;46.20;102036.63;4984760;28;20039;-71
2023/04/17 10:50:55;;;;;;;2.85;1.38;;;;;;;20.63;45.31;102043.25;4965662;28;20097;-70
2023/04/17 10:53:43;;;;;;;1.70;1.00;;;;;;;20.60;45.38;102030.38;4951995;28;20039;-70
2023/04/17 10:56:10;;;;;;;1.92;0.77;;;;;;;20.81;45.66;102024.13;4976362;28;20035;-70
2023/04/17 10:58:38;;;;;;;3.60;1.70;;;;;;;21.06;44.83;102022.19;4983512;28;20038;-71
2023/04/17 11:01:09;;;;;;;2.08;1.27;;;;;;;21.10;42.09;102025.72;4964527;28;20469;-70
2023/04/17 11:03:36;;;;;;;1.55;0.95;;;;;;;21.32;40.27;102042.94;4954912;28;20447;-72
2023/04/17 11:06:02;;;;;;;0.90;0.65;;;;;;;20.95;39.25;102031.56;4964556;28;20574;-71
2023/04/17 11:08:27;;;;;;;2.53;0.98;;;;;;;20.72;38.44;102028.41;4967323;28;20425;-70
2023/04/17 11:10:55;;;;;;;1.00;0.88;;;;;;;20.68;39.99;102029.22;4979527;28;20101;-70
2023/04/17 11:13:20;;;;;;;1.75;1.52;;;;;;;21.17;39.11;102025.72;4951335;28;20463;-71
2023/04/17 11:15:46;;;;;;;2.58;1.10;;;;;;;21.12;38.63;102023.38;4970078;28;20053;-70
2023/04/17 11:18:13;;;;;;;1.73;0.90;;;;;;;20.95;38.33;102031.56;4959219;28;20039;-72
2023/04/17 11:20:40;;;;;;;2.10;1.08;;;;;;;21.04;38.75;102027.28;4964036;28;20031;-70
2023/04/17 11:23:05;;;;;;;1.23;1.02;;;;;;;21.34;37.77;102024.91;4958871;28;20039;-72
2023/04/17 11:25:32;;;;;;;1.45;0.93;;;;;;;21.64;36.79;102029.91;4959698;28;20503;-71
2023/04/17 11:28:04;;;;;;;0.75;0.75;;;;;;;21.42;36.63;102025.69;4959866;28;20049;-70